createdAt,value
2018-12-13T00:04:59.985Z,19.62
2018-12-13T00:07:40.484Z,15.50
2018-12-13T00:10:13.365Z,17.05
2018-12-13T00:12:45.572Z,15.60
2018-12-13T00:15:22.250Z,15.30
2018-12-13T00:18:01.907Z,19.05
2018-12-13T00:20:34.283Z,14.87
2018-12-13T00:23:06.698Z,17.40
2018-12-13T00:25:38.839Z,15.43
2018-12-13T00:28:11.858Z,13.60
2018-12-13T00:30:43.872Z,16.67
2018-12-13T00:33:16.235Z,17.17
2018-12-13T00:35:52.908Z,14.58
2018-12-13T00:53:27.322Z,16.50
2018-12-13T00:55:59.738Z,18.32
2018-12-13T00:58:32.562Z,18.95
2018-12-13T01:07:19.775Z,18.02
2018-12-13T01:09:51.638Z,15.25
2018-12-13T01:15:23.258Z,17.07
2018-12-13T01:23:58.866Z,19.48
2018-12-13T01:26:45.011Z,17.57
2018-12-13T01:29:33.293Z,21.62
2018-12-13T01:35:17.096Z,17.35
2018-12-13T01:37:57.109Z,16.87
2018-12-13T01:40:38.439Z,19.05
2018-12-13T01:56:03.011Z,21.33
2018-12-13T02:01:43.683Z,24.02
2018-12-13T02:07:39.776Z,16.62
2018-12-13T02:13:29.385Z,19.35
2018-12-13T02:16:18.480Z,20.85
2018-12-13T02:22:05.156Z,18.15
2018-12-13T02:24:37.656Z,25.05
2018-12-13T02:30:10.282Z,19.90
2018-12-13T02:39:13.074Z,20.50
2018-12-13T03:45:38.833Z,21.20
2018-12-13T03:48:15.100Z,22.17
2018-12-13T03:50:57.515Z,23.60
2018-12-13T03:53:31.302Z,23.95
2018-12-13T03:59:23.248Z,21.37
2018-12-13T04:02:07.568Z,22.95
2018-12-13T04:04:41.336Z,20.55
2018-12-13T04:07:16.507Z,20.00
2018-12-13T04:43:30.364Z,26.45
2018-12-13T04:46:19.106Z,25.50
2018-12-13T04:52:00.472Z,25.45
2018-12-13T05:00:33.439Z,25.60
2018-12-13T05:03:08.364Z,28.98
2018-12-13T05:05:40.492Z,29.35
2018-12-13T05:08:20.293Z,23.65
2018-12-13T05:10:54.843Z,24.80
2018-12-13T05:16:24.160Z,27.90
2018-12-13T05:19:05.243Z,28.30
2018-12-13T05:21:38.464Z,22.90
2018-12-13T05:24:21.043Z,21.93
2018-12-13T05:26:58.348Z,22.73
2018-12-13T05:45:15.140Z,24.45
2018-12-13T05:47:49.248Z,23.80
2018-12-13T05:50:20.026Z,25.35
2018-12-13T05:55:48.854Z,25.35
2018-12-13T06:01:13.205Z,26.62
2018-12-13T06:03:43.826Z,24.40
2018-12-13T06:06:16.191Z,27.13
2018-12-13T06:08:44.890Z,24.77
2018-12-13T06:11:17.108Z,24.65
2018-12-13T06:13:45.953Z,24.40
2018-12-13T06:16:14.154Z,23.77
2018-12-13T06:18:42.584Z,27.45
2018-12-13T06:21:11.911Z,23.65
2018-12-13T06:23:40.726Z,22.65
2018-12-13T06:26:09.060Z,21.57
2018-12-13T06:28:37.601Z,22.70
2018-12-13T06:31:12.363Z,26.65
2018-12-13T06:33:44.732Z,27.62
2018-12-13T06:36:17.004Z,28.92
2018-12-13T06:38:49.138Z,23.90
2018-12-13T06:41:23.390Z,23.20
2018-12-13T06:43:55.193Z,27.25
2018-12-13T06:46:29.522Z,29.72
2018-12-13T06:49:03.846Z,27.02
2018-12-13T06:54:31.980Z,22.25
2018-12-13T06:57:05.367Z,27.32
2018-12-13T06:59:39.933Z,23.40
2018-12-13T07:02:12.223Z,22.65
2018-12-13T07:04:47.641Z,27.27
2018-12-13T07:07:22.246Z,28.40
2018-12-13T07:09:54.443Z,25.60
2018-12-13T07:12:26.853Z,24.15
2018-12-13T07:14:59.346Z,23.70
2018-12-13T07:23:39.135Z,23.67
2018-12-13T07:26:16.049Z,23.95
2018-12-13T07:29:10.019Z,28.20
2018-12-13T07:31:46.206Z,30.05
2018-12-13T07:37:53.400Z,25.72
2018-12-13T07:40:26.684Z,30.68
2018-12-13T07:43:01.843Z,25.62
2018-12-13T07:45:40.796Z,27.82
2018-12-13T07:48:16.426Z,22.58
2018-12-13T07:50:50.564Z,29.50
2018-12-13T07:53:29.200Z,24.77
2018-12-13T07:56:18.137Z,23.35
2018-12-13T07:59:04.847Z,25.48
2018-12-13T08:01:35.078Z,25.10
2018-12-13T08:04:06.894Z,30.88
2018-12-13T08:06:45.460Z,29.85
2018-12-13T08:09:18.501Z,25.52
2018-12-13T08:11:52.452Z,26.87
2018-12-13T08:14:25.662Z,25.20
2018-12-13T08:17:08.660Z,26.65
2018-12-13T08:19:41.030Z,30.15
2018-12-13T08:22:16.192Z,29.75
2018-12-13T08:24:48.339Z,23.80
2018-12-13T08:27:20.661Z,25.65
2018-12-13T08:29:53.374Z,26.80
2018-12-13T08:32:26.113Z,26.65
2018-12-13T08:35:02.058Z,35.45
2018-12-13T08:37:34.402Z,25.65
2018-12-13T08:40:06.505Z,29.07
2018-12-13T08:42:38.591Z,24.72
2018-12-13T08:45:10.939Z,28.17
2018-12-13T08:47:42.984Z,29.20
2018-12-13T08:50:15.445Z,24.87
2018-12-13T08:53:07.995Z,24.07
2018-12-13T08:55:47.046Z,27.62
2018-12-13T08:58:20.026Z,26.12
2018-12-13T09:03:50.687Z,27.17
2018-12-13T09:06:22.901Z,31.48
2018-12-13T09:08:54.916Z,26.87
2018-12-13T09:14:25.068Z,24.92
2018-12-13T09:16:57.483Z,28.15
2018-12-13T09:19:29.366Z,30.92
2018-12-13T09:22:01.829Z,34.98
2018-12-13T09:27:38.867Z,28.73
2018-12-13T09:30:13.530Z,27.00
2018-12-13T09:32:45.292Z,30.05
2018-12-13T09:35:23.522Z,28.98
2018-12-13T09:37:58.338Z,23.27
2018-12-13T09:40:30.654Z,26.15
2018-12-13T09:43:06.335Z,27.77
2018-12-13T09:45:42.042Z,31.50
2018-12-13T09:48:16.564Z,30.88
2018-12-13T09:50:49.304Z,22.90
2018-12-13T09:53:21.519Z,28.83
2018-12-13T09:55:54.411Z,31.30
2018-12-13T09:58:26.570Z,26.40
2018-12-13T10:01:02.280Z,33.15
2018-12-13T10:03:33.218Z,27.45
2018-12-13T10:06:07.571Z,25.57
2018-12-13T10:08:46.148Z,32.90
2018-12-13T10:11:13.914Z,30.68
2018-12-13T10:13:45.765Z,28.32
2018-12-13T10:16:18.233Z,31.17
2018-12-13T10:18:50.250Z,33.90
2018-12-13T10:21:22.334Z,33.45
2018-12-13T10:24:02.614Z,33.90
2018-12-13T10:26:34.676Z,30.97
2018-12-13T10:29:07.863Z,37.20
2018-12-13T10:31:42.815Z,30.05
2018-12-13T10:34:14.514Z,31.25
2018-12-13T10:36:47.279Z,28.75
2018-12-13T10:39:19.405Z,30.80
2018-12-13T10:41:53.589Z,29.55
2018-12-13T10:44:33.102Z,35.73
2018-12-13T10:47:05.631Z,33.70
2018-12-13T10:49:37.672Z,32.20
2018-12-13T10:52:10.402Z,27.27
2018-12-13T10:54:45.557Z,30.77
2018-12-13T10:57:17.138Z,30.02
2018-12-13T10:59:58.186Z,36.23
2018-12-13T11:02:39.951Z,33.33
2018-12-13T11:05:11.484Z,32.13
2018-12-13T11:07:48.982Z,31.00
2018-12-13T11:10:25.409Z,32.90
2018-12-13T11:12:55.124Z,30.82
2018-12-13T11:15:26.936Z,38.20
2018-12-13T11:18:01.292Z,30.35
2018-12-13T11:20:39.037Z,31.33
2018-12-13T11:23:14.296Z,29.45
2018-12-13T11:25:51.242Z,31.90
2018-12-13T11:31:25.023Z,35.35
2018-12-13T11:36:54.015Z,31.55
2018-12-13T11:39:26.223Z,31.40
2018-12-13T11:41:58.944Z,32.42
2018-12-13T11:44:35.205Z,37.03
2018-12-13T11:47:09.248Z,37.20
2018-12-13T11:49:44.088Z,38.58
2018-12-13T11:52:16.478Z,34.50
2018-12-13T11:57:49.783Z,35.88
2018-12-13T12:00:24.689Z,39.73
2018-12-13T12:08:58.532Z,33.55
2018-12-13T12:11:34.921Z,34.60
2018-12-13T12:17:03.303Z,35.10
2018-12-13T12:19:36.553Z,31.93
2018-12-13T12:22:08.791Z,36.48
2018-12-13T12:30:33.098Z,36.30
2018-12-13T12:33:07.182Z,38.63
2018-12-13T12:35:39.238Z,35.83
2018-12-13T12:38:13.851Z,46.35
2018-12-13T12:40:50.931Z,35.38
2018-12-13T12:51:57.805Z,33.83
2018-12-13T12:54:33.514Z,38.38
2018-12-13T12:57:10.171Z,31.23
2018-12-13T12:59:44.310Z,41.95
2018-12-13T13:05:26.358Z,31.57
2018-12-13T13:08:00.887Z,40.12
2018-12-13T13:10:39.805Z,32.00
2018-12-13T13:13:09.081Z,42.95
2018-12-13T13:15:40.729Z,45.45
2018-12-13T13:18:23.243Z,37.05
2018-12-13T13:39:00.217Z,38.25
2018-12-13T13:41:34.393Z,34.45
2018-12-13T13:47:06.148Z,39.15
2018-12-13T13:55:14.721Z,35.20
2018-12-13T14:03:36.465Z,40.88
2018-12-13T14:06:23.631Z,33.20
2018-12-13T14:11:58.464Z,41.18
2018-12-13T14:14:28.341Z,42.43
2018-12-13T14:17:00.173Z,36.98
2018-12-13T14:22:42.884Z,39.38
2018-12-13T14:28:11.482Z,45.38
2018-12-13T14:33:47.355Z,35.30
2018-12-13T14:48:16.117Z,38.15
2018-12-13T14:50:55.403Z,35.95
2018-12-13T15:01:29.485Z,39.20
2018-12-13T15:04:01.503Z,43.33
2018-12-13T15:06:39.521Z,35.40
2018-12-13T15:09:28.804Z,38.05
2018-12-13T15:12:15.501Z,41.13
2018-12-13T15:27:02.656Z,36.90
2018-12-13T15:32:44.601Z,34.00
2018-12-13T15:35:25.037Z,39.38
2018-12-13T15:38:03.399Z,35.75
2018-12-13T15:40:34.966Z,38.45
2018-12-13T15:46:13.357Z,38.23
2018-12-13T15:48:55.194Z,35.98
2018-12-13T15:51:24.538Z,31.90
2018-12-13T15:53:53.645Z,35.50
2018-12-13T15:56:23.035Z,38.65
2018-12-13T15:58:51.296Z,35.00
2018-12-13T16:01:19.940Z,35.65
2018-12-13T16:03:51.182Z,36.58
2018-12-13T16:06:33.851Z,26.93
2018-12-13T16:09:06.507Z,31.07
2018-12-13T16:11:34.830Z,38.08
2018-12-13T16:14:03.728Z,34.75
2018-12-13T16:16:33.200Z,31.42
2018-12-13T16:22:03.931Z,34.80
2018-12-13T16:24:35.505Z,34.55
2018-12-13T16:30:22.233Z,31.87
2018-12-13T16:38:56.740Z,29.63
2018-12-13T16:41:29.348Z,38.63
2018-12-13T16:44:03.482Z,30.05
2018-12-13T16:46:43.846Z,33.10
2018-12-13T16:58:22.455Z,29.92
2018-12-13T17:03:58.706Z,35.70
2018-12-13T17:06:30.736Z,33.95
2018-12-13T17:09:05.543Z,32.40
2018-12-13T17:11:34.548Z,37.60
2018-12-13T17:14:06.033Z,32.13
2018-12-13T17:16:37.377Z,29.52
2018-12-13T17:19:10.090Z,34.95
2018-12-13T17:24:37.890Z,32.55
2018-12-13T17:27:13.683Z,35.23
2018-12-13T17:29:46.927Z,34.63
2018-12-13T17:32:18.497Z,33.73
2018-12-13T17:34:50.624Z,31.48
2018-12-13T17:37:23.283Z,33.67
2018-12-13T17:39:56.188Z,32.03
2018-12-13T17:42:28.475Z,32.80
2018-12-13T17:45:01.769Z,33.90
2018-12-13T17:47:45.040Z,37.58
2018-12-13T17:50:19.988Z,32.05
2018-12-13T17:52:52.446Z,37.65
2018-12-13T17:55:22.318Z,36.60
2018-12-13T17:58:03.881Z,36.60
2018-12-13T18:00:32.977Z,33.80
2018-12-13T18:08:56.427Z,34.98
2018-12-13T18:14:30.308Z,33.00
2018-12-13T18:17:07.070Z,29.52
2018-12-13T18:22:45.909Z,36.03
2018-12-13T18:28:29.488Z,36.42
2018-12-13T18:31:05.362Z,35.58
2018-12-13T18:36:39.710Z,29.42
2018-12-13T18:51:05.512Z,31.75
2018-12-13T18:53:42.238Z,34.67
2018-12-13T18:59:04.442Z,31.80
2018-12-13T19:01:34.714Z,41.55
2018-12-13T19:04:07.011Z,36.30
2018-12-13T19:06:39.164Z,37.38
2018-12-13T19:09:13.597Z,33.95
2018-12-13T19:14:46.477Z,33.75
2018-12-13T19:17:18.755Z,33.78
2018-12-13T19:19:50.990Z,33.10
2018-12-13T19:25:27.804Z,41.95
2018-12-13T19:28:04.077Z,30.75
2018-12-13T19:30:37.349Z,38.45
2018-12-13T19:33:09.244Z,32.80
2018-12-13T19:35:41.370Z,34.35
2018-12-13T19:38:14.252Z,30.00
2018-12-13T19:40:48.449Z,32.90
2018-12-13T19:43:20.462Z,34.60
2018-12-13T19:45:52.090Z,34.78
2018-12-13T19:48:29.471Z,36.60
2018-12-13T19:51:04.273Z,29.92
2018-12-13T19:53:44.293Z,32.50
2018-12-13T19:56:20.275Z,30.75
2018-12-13T19:58:58.802Z,27.10
2018-12-13T20:01:34.199Z,33.65
2018-12-13T20:13:09.640Z,34.75
2018-12-13T20:15:45.597Z,38.15
2018-12-13T20:18:33.974Z,30.70
2018-12-13T20:27:21.332Z,33.42
2018-12-13T20:33:04.674Z,29.87
2018-12-13T20:35:37.552Z,31.65
2018-12-13T20:41:09.494Z,32.42
2018-12-13T20:49:42.169Z,30.05
2018-12-13T20:52:14.804Z,30.50
2018-12-13T20:57:45.358Z,30.70
2018-12-13T21:00:17.284Z,28.40
2018-12-13T21:02:51.752Z,30.85
2018-12-13T21:08:19.533Z,31.17
2018-12-13T21:10:53.462Z,32.55
2018-12-13T21:13:22.975Z,29.82
2018-12-13T21:15:57.197Z,34.58
2018-12-13T21:27:21.324Z,30.80
2018-12-13T21:29:53.537Z,38.25
2018-12-13T21:32:25.990Z,35.43
2018-12-13T21:34:58.557Z,32.93
2018-12-13T21:37:31.002Z,31.30
2018-12-13T21:40:03.199Z,38.85
2018-12-13T21:42:35.116Z,32.23
2018-12-13T21:45:07.982Z,30.70
2018-12-13T21:47:40.073Z,32.33
2018-12-13T21:50:14.320Z,34.15
2018-12-13T21:52:48.190Z,29.50
2018-12-13T21:55:20.133Z,36.93
2018-12-13T21:57:52.159Z,30.90
2018-12-13T22:00:24.543Z,33.40
2018-12-13T22:02:56.413Z,27.90
2018-12-13T22:05:29.883Z,31.45
2018-12-13T22:11:02.757Z,37.08
2018-12-13T22:13:36.858Z,34.90
2018-12-13T22:16:08.549Z,32.90
2018-12-13T22:26:10.812Z,34.00
2018-12-13T22:28:42.845Z,38.98
2018-12-13T22:31:14.973Z,42.58
2018-12-13T22:36:42.926Z,40.48
2018-12-13T22:45:13.432Z,41.35
2018-12-13T22:47:45.379Z,35.88
2018-12-13T22:50:17.361Z,36.60
2018-12-13T22:52:49.708Z,38.23
2018-12-13T22:58:16.836Z,33.28
2018-12-13T23:00:48.935Z,41.25
2018-12-13T23:06:16.873Z,39.58
2018-12-13T23:08:48.691Z,35.55
2018-12-13T23:17:15.988Z,39.25
2018-12-13T23:22:48.091Z,33.53
2018-12-13T23:25:22.385Z,33.73
2018-12-13T23:30:23.007Z,35.88
2018-12-13T23:32:55.229Z,39.55
2018-12-13T23:35:27.343Z,37.00
2018-12-13T23:37:59.301Z,40.55
2018-12-13T23:46:30.217Z,42.27
2018-12-13T23:49:03.052Z,43.83
2018-12-13T23:51:35.565Z,42.03
2018-12-13T23:54:07.332Z,35.13
2018-12-13T23:59:39.397Z,43.52
